Floyd, Iowa
Current Conditions -  °F | °C
As of 12:55 AM on Saturday 25 Oct 2014 (Local Time) from KCCY Reporting Station
Moderate Fog Moderate Fog  
Wind Chill: 48°   Ceiling: Unl
Heat Index: 48°   Visibility: 0mi
Dew Point: 48°   Wind: 3mph
Humidity: 100%   Direction: 230°SW
Pressure: 29.95"   Gusts: NA
Location:  43.13°N, 92.74°W
Report Text: KCCY 250555Z AUTO 23003KT M1/4SM FG VV000 09/09 A2995 RMK AO2
Loading
Personal Weather Stations






























Interactive Weather Map
Tropical Storm Tracking
New forecast layout! Learn more

10-Day Weather Forecast

Advertisements
Track Severe Weather on mobile